createdAt,value
2018-09-02T00:01:30.284Z,7.47
2018-09-02T00:04:02.383Z,7.37
2018-09-02T00:06:34.378Z,8.47
2018-09-02T00:09:06.441Z,7.70
2018-09-02T00:11:38.428Z,7.33
2018-09-02T00:14:10.483Z,6.40
2018-09-02T00:16:42.557Z,8.40
2018-09-02T00:19:14.570Z,7.90
2018-09-02T00:21:46.574Z,7.70
2018-09-02T00:24:18.980Z,7.93
2018-09-02T00:26:51.023Z,6.63
2018-09-02T00:29:23.061Z,6.53
2018-09-02T00:31:55.080Z,6.27
2018-09-02T00:34:27.113Z,5.90
2018-09-02T00:36:59.131Z,5.80
2018-09-02T00:39:31.165Z,5.27
2018-09-02T00:42:03.261Z,5.47
2018-09-02T00:44:35.525Z,4.77
2018-09-02T00:47:07.632Z,5.03
2018-09-02T00:49:39.716Z,5.30
2018-09-02T00:52:11.773Z,4.67
2018-09-02T00:54:43.801Z,4.83
2018-09-02T00:57:15.805Z,4.43
2018-09-02T00:59:47.853Z,4.17
2018-09-02T01:02:19.907Z,4.60
2018-09-02T01:04:51.895Z,3.90
2018-09-02T01:07:23.935Z,3.93
2018-09-02T01:09:55.982Z,3.93
2018-09-02T01:12:28.202Z,3.90
2018-09-02T01:15:00.230Z,4.33
2018-09-02T01:17:32.267Z,4.17
2018-09-02T01:20:04.410Z,3.63
2018-09-02T01:22:36.467Z,3.67
2018-09-02T01:25:08.561Z,3.90
2018-09-02T01:27:40.628Z,3.30
2018-09-02T01:30:12.630Z,3.53
2018-09-02T01:32:44.634Z,3.67
2018-09-02T01:42:10.953Z,3.73
2018-09-02T01:44:43.013Z,3.97
2018-09-02T01:47:14.998Z,3.43
2018-09-02T01:49:47.025Z,4.30
2018-09-02T01:52:19.017Z,4.27
2018-09-02T01:54:51.009Z,4.00
2018-09-02T01:57:23.017Z,3.97
2018-09-02T01:59:55.042Z,4.20
2018-09-02T02:02:27.095Z,4.13
2018-09-02T02:04:59.131Z,4.80
2018-09-02T02:07:31.106Z,4.10
2018-09-02T02:10:03.197Z,4.40
2018-09-02T02:12:35.296Z,4.60
2018-09-02T02:15:07.451Z,4.03
2018-09-02T02:17:39.489Z,4.93
2018-09-02T02:20:11.562Z,4.87
2018-09-02T02:22:43.555Z,5.10
2018-09-02T02:25:15.561Z,4.80
2018-09-02T02:27:47.597Z,5.00
2018-09-02T02:30:20.422Z,4.83
2018-09-02T02:32:52.433Z,5.30
2018-09-02T02:35:24.473Z,4.83
2018-09-02T02:37:56.518Z,4.57
2018-09-02T02:40:28.551Z,5.10
2018-09-02T02:43:00.594Z,4.77
2018-09-02T02:45:32.664Z,5.27
2018-09-02T02:48:04.729Z,4.57
2018-09-02T02:50:36.746Z,5.27
2018-09-02T02:53:08.757Z,4.93
2018-09-02T02:55:40.810Z,5.33
2018-09-02T02:58:12.839Z,5.67
2018-09-02T03:00:44.948Z,5.03
2018-09-02T03:03:16.958Z,4.93
2018-09-02T03:05:48.943Z,5.10
2018-09-02T03:08:20.969Z,5.87
2018-09-02T03:10:53.008Z,6.27
2018-09-02T03:13:25.002Z,5.93
2018-09-02T03:15:57.045Z,6.80
2018-09-02T03:18:29.175Z,6.53
2018-09-02T03:21:01.215Z,6.07
2018-09-02T03:23:33.487Z,5.67
2018-09-02T03:26:05.573Z,6.70
2018-09-02T03:28:37.624Z,5.73
2018-09-02T03:31:09.687Z,6.40
2018-09-02T03:33:41.728Z,5.33
2018-09-02T03:36:13.773Z,6.50
2018-09-02T03:38:45.757Z,6.03
2018-09-02T03:41:17.779Z,7.30
2018-09-02T03:43:49.848Z,7.00
2018-09-02T03:46:21.880Z,6.73
2018-09-02T03:48:53.891Z,6.13
2018-09-02T03:51:25.911Z,6.60
2018-09-02T03:53:57.934Z,6.30
2018-09-02T03:56:29.975Z,6.73
2018-09-02T03:59:02.017Z,6.83
2018-09-02T04:01:34.003Z,7.63
2018-09-02T04:04:06.131Z,6.87
2018-09-02T04:06:38.150Z,7.10
2018-09-02T04:09:11.097Z,7.13
2018-09-02T04:11:43.106Z,6.47
2018-09-02T04:14:15.121Z,6.67
2018-09-02T04:16:47.138Z,7.10
2018-09-02T04:19:19.161Z,6.87
2018-09-02T04:21:51.200Z,7.37
2018-09-02T04:24:23.222Z,7.67
2018-09-02T04:26:55.341Z,7.23
2018-09-02T04:29:27.330Z,7.30
2018-09-02T04:31:59.340Z,7.23
2018-09-02T04:34:31.378Z,7.30
2018-09-02T04:37:03.401Z,7.27
2018-09-02T04:39:35.513Z,7.37
2018-09-02T04:42:07.502Z,8.30
2018-09-02T04:44:39.609Z,8.07
2018-09-02T04:47:11.661Z,8.00
2018-09-02T04:49:43.706Z,7.80
2018-09-02T04:52:15.715Z,8.53
2018-09-02T04:54:47.691Z,8.30
2018-09-02T04:57:19.705Z,8.77
2018-09-02T04:59:51.726Z,9.40
2018-09-02T05:02:23.727Z,9.40
2018-09-02T05:04:55.725Z,9.70
2018-09-02T05:07:27.782Z,9.20
2018-09-02T05:09:59.884Z,10.47
2018-09-02T05:12:31.983Z,10.17
2018-09-02T05:15:04.004Z,10.97
2018-09-02T05:17:36.085Z,11.10
2018-09-02T05:20:08.094Z,11.33
2018-09-02T05:22:40.098Z,10.53
2018-09-02T05:25:12.134Z,12.13
2018-09-02T05:27:44.227Z,11.27
2018-09-02T05:30:16.258Z,11.37
2018-09-02T05:32:48.287Z,12.00
2018-09-02T05:35:20.365Z,10.70
2018-09-02T05:37:52.390Z,11.13
2018-09-02T05:40:24.437Z,10.93
2018-09-02T05:42:56.426Z,10.47
2018-09-02T05:45:28.491Z,11.53
2018-09-02T05:48:00.509Z,10.93
2018-09-02T05:50:32.541Z,11.20
2018-09-02T05:53:04.581Z,10.60
2018-09-02T05:55:36.638Z,10.23
2018-09-02T05:58:08.665Z,10.30
2018-09-02T06:00:40.752Z,10.17
2018-09-02T06:03:12.834Z,9.77
2018-09-02T06:05:44.913Z,10.20
2018-09-02T06:08:16.926Z,9.13
2018-09-02T06:10:48.971Z,10.37
2018-09-02T06:13:21.029Z,11.57
2018-09-02T06:15:53.089Z,10.63
2018-09-02T06:18:25.086Z,11.23
2018-09-02T06:20:57.123Z,10.83
2018-09-02T06:23:29.123Z,10.50
2018-09-02T06:26:01.239Z,10.97
2018-09-02T06:28:33.382Z,10.97
2018-09-02T06:31:05.433Z,11.03
2018-09-02T06:33:37.458Z,11.03
2018-09-02T06:36:09.493Z,10.93
2018-09-02T06:38:41.541Z,11.70
2018-09-02T06:41:13.623Z,11.37
2018-09-02T06:43:45.685Z,11.20
2018-09-02T06:46:17.752Z,11.60
2018-09-02T06:48:49.781Z,11.53
2018-09-02T06:51:21.873Z,11.13
2018-09-02T06:53:53.930Z,11.93
2018-09-02T06:56:26.185Z,10.77
2018-09-02T06:58:58.204Z,10.40
2018-09-02T07:01:30.247Z,11.90
2018-09-02T07:04:02.244Z,11.10
2018-09-02T07:06:34.353Z,10.33
2018-09-02T07:09:06.449Z,11.03
2018-09-02T07:11:38.530Z,11.07
2018-09-02T07:14:10.617Z,8.90
2018-09-02T07:16:42.663Z,9.57
2018-09-02T07:19:14.745Z,9.23
2018-09-02T07:21:46.813Z,9.33
2018-09-02T07:24:19.098Z,8.60
2018-09-02T07:26:51.788Z,8.40
2018-09-02T07:29:23.818Z,8.80
2018-09-02T07:31:56.021Z,9.77
2018-09-02T07:34:28.037Z,8.93
2018-09-02T07:37:00.031Z,9.00
2018-09-02T07:39:32.071Z,9.07
2018-09-02T07:42:04.070Z,9.50
2018-09-02T07:44:36.130Z,9.23
2018-09-02T07:47:08.149Z,9.50
2018-09-02T07:49:40.158Z,9.67
2018-09-02T07:52:12.195Z,9.80
2018-09-02T07:54:44.240Z,9.57
2018-09-02T07:57:16.295Z,10.23
2018-09-02T07:59:48.361Z,9.20
2018-09-02T08:02:20.478Z,9.63
2018-09-02T08:04:52.549Z,8.90
2018-09-02T08:07:24.582Z,8.43
2018-09-02T08:09:56.593Z,9.10
2018-09-02T08:12:28.711Z,8.53
2018-09-02T08:15:00.742Z,7.87
2018-09-02T08:17:32.731Z,7.87
2018-09-02T08:20:04.909Z,8.00
2018-09-02T08:22:38.339Z,7.57
2018-09-02T08:25:10.638Z,8.30
2018-09-02T08:27:42.668Z,7.27
2018-09-02T08:30:14.734Z,8.33
2018-09-02T08:32:47.084Z,7.70
2018-09-02T08:35:19.113Z,7.20
2018-09-02T08:37:51.138Z,8.33
2018-09-02T08:40:23.166Z,7.27
2018-09-02T08:42:55.421Z,8.20
2018-09-02T08:45:27.502Z,7.57
2018-09-02T08:47:59.639Z,7.90
2018-09-02T08:50:32.304Z,8.73
2018-09-02T08:53:04.335Z,7.93
2018-09-02T08:55:36.385Z,8.63
2018-09-02T08:58:08.400Z,9.10
2018-09-02T09:00:40.457Z,10.37
2018-09-02T09:03:12.732Z,8.87
2018-09-02T09:05:44.765Z,9.00
2018-09-02T09:08:17.023Z,10.87
2018-09-02T09:10:51.277Z,11.17
2018-09-02T09:15:56.054Z,12.50
2018-09-02T09:18:28.157Z,12.73
2018-09-02T09:21:00.214Z,12.47
2018-09-02T09:23:33.023Z,13.53
2018-09-02T09:26:05.178Z,13.60
2018-09-02T09:28:37.350Z,14.50
2018-09-02T09:31:09.922Z,15.20
2018-09-02T09:33:42.002Z,14.50
2018-09-02T09:36:14.020Z,13.63
2018-09-02T09:38:46.082Z,13.20
2018-09-02T09:41:18.116Z,10.90
2018-09-02T09:43:50.164Z,12.03
2018-09-02T09:46:22.178Z,10.20
2018-09-02T09:48:54.239Z,10.23
2018-09-02T09:51:26.257Z,10.27
2018-09-02T09:53:58.309Z,8.80
2018-09-02T09:56:30.353Z,8.27
2018-09-02T09:59:02.388Z,6.83
2018-09-02T10:01:34.489Z,8.00
2018-09-02T10:04:06.634Z,8.17
2018-09-02T10:06:38.642Z,6.67
2018-09-02T10:09:13.084Z,6.43
2018-09-02T10:11:45.180Z,6.53
2018-09-02T10:14:17.396Z,6.53
2018-09-02T10:16:49.439Z,6.20
2018-09-02T10:19:21.531Z,5.70
2018-09-02T10:21:53.566Z,7.07
2018-09-02T10:24:25.616Z,7.67
2018-09-02T10:26:57.657Z,6.70
2018-09-02T10:29:29.690Z,7.07
2018-09-02T10:32:01.965Z,7.47
2018-09-02T10:34:33.982Z,7.00
2018-09-02T10:37:06.039Z,6.37
2018-09-02T10:39:38.108Z,7.47
2018-09-02T10:42:10.170Z,6.43
2018-09-02T10:44:42.215Z,7.33
2018-09-02T10:47:14.203Z,7.43
2018-09-02T10:49:46.426Z,6.63
2018-09-02T10:52:18.356Z,6.43
2018-09-02T10:54:50.594Z,14.90
2018-09-02T10:57:22.655Z,7.60
2018-09-02T10:59:54.726Z,7.20
2018-09-02T11:02:26.856Z,6.20
2018-09-02T11:04:58.889Z,6.50
2018-09-02T11:07:30.925Z,7.07
2018-09-02T11:10:06.128Z,6.23
2018-09-02T11:12:38.173Z,6.33
2018-09-02T11:15:10.207Z,6.10
2018-09-02T11:17:42.431Z,6.30
2018-09-02T11:20:14.511Z,5.73
2018-09-02T11:22:46.538Z,5.80
2018-09-02T11:25:18.536Z,4.43
2018-09-02T11:27:50.629Z,5.23
2018-09-02T11:30:22.694Z,4.03
2018-09-02T11:32:54.725Z,4.40
2018-09-02T11:35:26.750Z,4.47
2018-09-02T11:37:58.791Z,4.40
2018-09-02T11:40:30.823Z,4.63
2018-09-02T11:43:02.867Z,4.40
2018-09-02T11:45:34.879Z,4.20
2018-09-02T11:48:07.006Z,3.80
2018-09-02T11:50:39.025Z,3.60
2018-09-02T11:53:11.060Z,3.77
2018-09-02T11:55:43.102Z,3.67
2018-09-02T11:58:15.135Z,3.70
2018-09-02T12:00:47.200Z,3.47
2018-09-02T12:03:19.247Z,3.77
2018-09-02T12:05:51.273Z,3.30
2018-09-02T12:08:23.315Z,3.30
2018-09-02T12:10:55.377Z,2.80
2018-09-02T12:13:27.400Z,3.20
2018-09-02T12:15:59.455Z,2.90
2018-09-02T12:18:31.517Z,3.40
2018-09-02T12:21:03.516Z,3.23
2018-09-02T12:23:35.563Z,2.77
2018-09-02T12:26:07.570Z,3.10
2018-09-02T12:28:39.598Z,3.20
2018-09-02T12:31:11.589Z,3.10
2018-09-02T12:33:43.683Z,3.33
2018-09-02T12:36:15.720Z,3.53
2018-09-02T12:38:47.766Z,3.27
2018-09-02T12:41:19.921Z,3.30
2018-09-02T12:43:51.971Z,2.77
2018-09-02T12:46:24.004Z,3.30
2018-09-02T12:48:56.055Z,2.75
2018-09-02T12:51:28.117Z,2.92
2018-09-02T12:54:00.206Z,3.10
2018-09-02T12:56:32.221Z,3.08
2018-09-02T12:59:04.227Z,3.42
2018-09-02T13:01:36.327Z,3.00
2018-09-02T13:04:08.434Z,3.10
2018-09-02T13:06:40.434Z,3.55
2018-09-02T13:09:12.455Z,3.10
2018-09-02T13:11:44.516Z,3.50
2018-09-02T13:14:16.590Z,3.10
2018-09-02T13:16:48.633Z,3.22
2018-09-02T13:19:20.818Z,3.20
2018-09-02T13:21:52.842Z,3.15
2018-09-02T13:24:24.923Z,3.23
2018-09-02T13:26:56.927Z,4.45
2018-09-02T13:29:29.061Z,3.33
2018-09-02T13:32:01.100Z,3.62
2018-09-02T13:34:33.148Z,4.03
2018-09-02T13:37:05.222Z,3.72
2018-09-02T13:39:37.213Z,3.98
2018-09-02T13:42:09.278Z,3.70
2018-09-02T13:44:41.271Z,4.05
2018-09-02T13:47:13.420Z,4.17
2018-09-02T13:49:45.564Z,3.60
2018-09-02T13:52:17.631Z,4.35
2018-09-02T13:54:49.697Z,4.80
2018-09-02T13:57:22.115Z,5.05
2018-09-02T13:59:54.328Z,4.42
2018-09-02T14:02:26.375Z,4.62
2018-09-02T14:04:58.425Z,4.83
2018-09-02T14:07:30.466Z,4.53
2018-09-02T14:10:02.517Z,5.75
2018-09-02T14:12:34.531Z,5.90
2018-09-02T14:15:06.821Z,5.80
2018-09-02T14:17:38.896Z,6.12
2018-09-02T14:20:10.927Z,5.05
2018-09-02T14:22:43.071Z,5.28
2018-09-02T14:25:15.121Z,5.37
2018-09-02T14:27:47.181Z,5.62
2018-09-02T14:30:19.217Z,5.20
2018-09-02T14:32:51.711Z,5.75
2018-09-02T14:35:23.807Z,6.10
2018-09-02T14:37:55.874Z,5.45
2018-09-02T14:40:27.947Z,4.90
2018-09-02T14:43:00.034Z,5.20
2018-09-02T14:45:32.052Z,5.05
2018-09-02T14:48:04.220Z,7.33
2018-09-02T14:50:36.347Z,5.30
2018-09-02T14:53:09.003Z,5.80
2018-09-02T14:55:41.058Z,5.72
2018-09-02T14:58:13.135Z,5.40
2018-09-02T15:00:45.246Z,5.83
2018-09-02T15:03:17.306Z,6.67
2018-09-02T15:05:49.344Z,5.40
2018-09-02T15:08:22.379Z,5.35
2018-09-02T15:10:54.457Z,5.55
2018-09-02T15:13:26.489Z,6.10
2018-09-02T15:15:58.521Z,5.92
2018-09-02T15:18:30.627Z,5.62
2018-09-02T15:21:02.986Z,6.03
2018-09-02T15:23:35.043Z,5.72
2018-09-02T15:26:07.097Z,5.40
2018-09-02T15:28:39.119Z,5.80
2018-09-02T15:31:11.952Z,6.28
2018-09-02T15:33:43.961Z,5.90
2018-09-02T15:36:16.273Z,5.75
2018-09-02T15:38:48.670Z,5.78
2018-09-02T15:41:20.806Z,6.42
2018-09-02T15:43:53.600Z,5.95
2018-09-02T15:46:25.982Z,5.83
2018-09-02T15:48:58.053Z,5.85
2018-09-02T15:51:30.396Z,6.58
2018-09-02T15:54:02.406Z,6.42
2018-09-02T15:56:34.625Z,6.90
2018-09-02T15:59:06.707Z,6.03
2018-09-02T16:01:38.865Z,5.58
2018-09-02T16:04:10.946Z,5.97
2018-09-02T16:06:43.027Z,6.55
2018-09-02T16:09:15.071Z,6.40
2018-09-02T16:11:47.098Z,7.37
2018-09-02T16:14:19.111Z,6.28
2018-09-02T16:16:51.240Z,6.87
2018-09-02T16:19:23.230Z,6.50
2018-09-02T16:21:55.281Z,6.70
2018-09-02T16:24:27.577Z,6.55
2018-09-02T16:26:59.607Z,6.20
2018-09-02T16:29:31.668Z,6.30
2018-09-02T16:32:03.716Z,6.60
2018-09-02T16:34:35.752Z,6.28
2018-09-02T16:37:08.660Z,6.30
2018-09-02T16:39:40.691Z,6.75
2018-09-02T16:42:12.763Z,6.08
2018-09-02T16:44:44.789Z,7.25
2018-09-02T16:47:16.774Z,6.42
2018-09-02T16:49:48.797Z,6.50
2018-09-02T16:52:21.342Z,6.10
2018-09-02T16:54:53.526Z,6.62
2018-09-02T16:57:25.573Z,6.80
2018-09-02T16:59:57.598Z,7.22
2018-09-02T17:02:29.609Z,6.30
2018-09-02T17:05:05.136Z,6.80
2018-09-02T17:07:37.174Z,6.87
2018-09-02T17:10:09.168Z,6.53
2018-09-02T17:12:41.392Z,7.00
2018-09-02T17:15:13.361Z,6.60
2018-09-02T17:17:45.380Z,6.37
2018-09-02T17:20:23.710Z,6.15
2018-09-02T17:23:00.362Z,6.50
2018-09-02T17:25:32.418Z,6.83
2018-09-02T17:28:04.453Z,6.85
2018-09-02T17:30:37.294Z,6.20
2018-09-02T17:33:10.691Z,6.23
2018-09-02T17:35:42.971Z,7.05
2018-09-02T17:38:15.817Z,6.53
2018-09-02T17:40:47.858Z,6.93
2018-09-02T17:43:19.926Z,6.93
2018-09-02T17:45:52.021Z,6.20
2018-09-02T17:48:23.986Z,7.03
2018-09-02T17:50:56.070Z,6.23
2018-09-02T17:53:28.165Z,6.87
2018-09-02T17:56:00.285Z,6.67
2018-09-02T17:58:32.359Z,6.63
2018-09-02T18:01:04.968Z,6.90
2018-09-02T18:03:37.181Z,7.00
2018-09-02T18:06:09.332Z,6.23
2018-09-02T18:08:41.435Z,7.03
2018-09-02T18:11:13.501Z,7.30
2018-09-02T18:13:45.571Z,6.83
2018-09-02T18:16:17.691Z,7.22
2018-09-02T18:18:49.796Z,7.30
2018-09-02T18:21:21.921Z,7.27
2018-09-02T18:23:54.886Z,6.43
2018-09-02T18:26:26.978Z,7.50
2018-09-02T18:28:59.107Z,7.63
2018-09-02T18:31:31.130Z,6.90
2018-09-02T18:34:03.318Z,7.30
2018-09-02T18:36:35.419Z,7.87
2018-09-02T18:39:09.456Z,7.80
2018-09-02T18:41:41.449Z,6.57
2018-09-02T18:44:13.534Z,7.43
2018-09-02T18:46:45.591Z,8.00
2018-09-02T18:49:17.814Z,6.73
2018-09-02T18:51:49.931Z,8.13
2018-09-02T18:54:22.079Z,7.97
2018-09-02T18:56:54.214Z,7.63
2018-09-02T18:59:26.387Z,7.67
2018-09-02T19:01:58.522Z,7.90
2018-09-02T19:04:30.749Z,7.17
2018-09-02T19:07:02.778Z,7.50
2018-09-02T19:09:35.155Z,7.37
2018-09-02T19:12:08.001Z,8.13
2018-09-02T19:14:40.065Z,7.13
2018-09-02T19:17:12.121Z,7.27
2018-09-02T19:19:44.237Z,8.27
2018-09-02T19:22:18.239Z,7.97
2018-09-02T19:24:50.518Z,8.70
2018-09-02T19:27:22.690Z,7.27
2018-09-02T19:29:54.901Z,8.17
2018-09-02T19:32:27.094Z,8.20
2018-09-02T19:34:59.195Z,8.20
2018-09-02T19:37:31.412Z,7.60
2018-09-02T19:40:10.335Z,7.40
2018-09-02T19:42:42.791Z,7.73
2018-09-02T19:45:14.941Z,7.93
2018-09-02T19:47:47.284Z,7.00
2018-09-02T19:50:19.498Z,7.70
2018-09-02T19:52:51.918Z,7.30
2018-09-02T19:55:24.061Z,9.00
2018-09-02T19:57:56.282Z,7.53
2018-09-02T20:00:28.306Z,7.97
2018-09-02T20:03:00.449Z,7.73
2018-09-02T20:05:34.991Z,8.30
2018-09-02T20:08:07.052Z,8.10
2018-09-02T20:10:39.101Z,7.43
2018-09-02T20:13:11.135Z,7.93
2018-09-02T20:15:43.177Z,9.40
2018-09-02T20:18:15.907Z,7.77
2018-09-02T20:20:48.158Z,8.20
2018-09-02T20:23:20.170Z,8.03
2018-09-02T20:25:52.276Z,8.47
2018-09-02T20:28:24.330Z,9.47
2018-09-02T20:30:56.446Z,8.27
2018-09-02T20:33:28.475Z,8.17
2018-09-02T20:36:00.611Z,7.20
2018-09-02T20:38:32.614Z,7.67
2018-09-02T20:41:04.732Z,7.70
2018-09-02T20:43:36.770Z,7.80
2018-09-02T20:46:08.836Z,9.00
2018-09-02T20:48:40.835Z,8.47
2018-09-02T20:51:12.971Z,8.70
2018-09-02T20:53:44.926Z,7.47
2018-09-02T20:56:17.005Z,8.50
2018-09-02T20:58:49.141Z,8.20
2018-09-02T21:01:21.259Z,8.67
2018-09-02T21:03:53.335Z,8.60
2018-09-02T21:06:25.386Z,8.93
2018-09-02T21:08:57.406Z,9.33
2018-09-02T21:11:29.732Z,7.80
2018-09-02T21:14:01.960Z,8.90
2018-09-02T21:16:34.036Z,8.33
2018-09-02T21:19:06.231Z,8.90
2018-09-02T21:21:38.425Z,8.63
2018-09-02T21:24:10.954Z,8.47
2018-09-02T21:26:43.046Z,8.83
2018-09-02T21:29:15.163Z,9.00
2018-09-02T21:31:47.291Z,8.90
2018-09-02T21:34:19.343Z,8.30
2018-09-02T21:36:51.442Z,9.17
2018-09-02T21:39:23.555Z,10.20
2018-09-02T21:41:55.647Z,8.70
2018-09-02T21:44:27.694Z,9.33
2018-09-02T21:46:59.883Z,9.10
2018-09-02T21:49:31.946Z,8.97
2018-09-02T21:52:03.986Z,9.33
2018-09-02T21:54:36.072Z,9.17
2018-09-02T21:57:08.098Z,9.10
2018-09-02T21:59:40.149Z,9.00
2018-09-02T22:02:12.186Z,9.67
2018-09-02T22:04:44.404Z,9.17
2018-09-02T22:07:16.450Z,10.73
2018-09-02T22:09:48.555Z,9.60
2018-09-02T22:12:20.573Z,9.97
2018-09-02T22:14:52.654Z,9.33
2018-09-02T22:17:24.759Z,8.87
2018-09-02T22:19:56.926Z,9.33
2018-09-02T22:22:29.379Z,10.20
2018-09-02T22:25:01.428Z,8.53
2018-09-02T22:27:33.462Z,9.47
2018-09-02T22:30:06.604Z,9.23
2018-09-02T22:32:38.638Z,9.60
2018-09-02T22:35:10.683Z,9.70
2018-09-02T22:37:42.721Z,8.90
2018-09-02T22:40:14.763Z,9.97
2018-09-02T22:42:46.784Z,9.03
2018-09-02T22:45:18.822Z,10.43
2018-09-02T22:47:50.887Z,10.27
2018-09-02T22:50:22.937Z,9.90
2018-09-02T22:52:55.034Z,9.70
2018-09-02T22:55:27.168Z,10.10
2018-09-02T22:57:59.258Z,10.37
2018-09-02T23:00:31.185Z,9.77
2018-09-02T23:03:03.256Z,10.23
2018-09-02T23:05:35.336Z,10.10
2018-09-02T23:08:07.324Z,9.90
2018-09-02T23:10:39.359Z,9.90
2018-09-02T23:13:11.377Z,10.60
2018-09-02T23:15:43.411Z,9.57
2018-09-02T23:18:15.466Z,9.00
2018-09-02T23:20:47.521Z,10.43
2018-09-02T23:23:19.542Z,9.63
2018-09-02T23:25:51.566Z,9.53
2018-09-02T23:28:23.629Z,12.73
2018-09-02T23:30:55.685Z,14.23
2018-09-02T23:33:27.738Z,17.13
2018-09-02T23:35:59.758Z,18.97
2018-09-02T23:38:31.853Z,13.57
2018-09-02T23:41:03.950Z,12.37
2018-09-02T23:43:35.976Z,11.80
2018-09-02T23:46:07.981Z,12.07
2018-09-02T23:48:40.026Z,12.47
2018-09-02T23:51:12.103Z,11.07
2018-09-02T23:53:44.094Z,12.20
2018-09-02T23:56:16.116Z,9.57
2018-09-02T23:58:48.191Z,10.70
